createdAt,value
2022-11-14T00:04:28.334Z,23.6
2022-11-14T00:09:53.089Z,23.3
2022-11-14T00:15:14.753Z,24.2
2022-11-14T00:20:21.564Z,24.9
2022-11-14T00:26:00.393Z,24.8
2022-11-14T00:31:37.961Z,24.4
2022-11-14T00:37:15.444Z,24.1
2022-11-14T00:42:23.437Z,23.8
2022-11-14T00:47:45.613Z,23.6
2022-11-14T00:53:23.103Z,23.4
2022-11-14T00:59:01.846Z,23.1
2022-11-14T01:04:44.596Z,22.9
2022-11-14T01:10:22.297Z,22.8
2022-11-14T01:15:45.889Z,22.6
2022-11-14T01:21:22.708Z,22.6
2022-11-14T01:26:49.354Z,22.4
2022-11-14T01:32:28.344Z,22.3
2022-11-14T01:37:49.700Z,22.3
2022-11-14T01:43:33.249Z,22.1
2022-11-14T01:49:11.756Z,22
2022-11-14T01:54:48.400Z,21.9
2022-11-14T01:59:55.210Z,21.9
2022-11-14T02:05:38.692Z,21.7
2022-11-14T02:11:17.087Z,21.8
2022-11-14T02:17:14.659Z,21.6
2022-11-14T02:22:54.349Z,21.6
2022-11-14T02:28:17.559Z,21.4
2022-11-14T02:34:00.543Z,21.4
2022-11-14T02:39:39.477Z,21.3
2022-11-14T02:45:16.857Z,21.3
2022-11-14T02:50:54.723Z,21.2
2022-11-14T03:06:29.040Z,21.1
2022-11-14T03:11:05.320Z,21
2022-11-14T03:16:44.227Z,21
2022-11-14T03:21:50.946Z,20.9
2022-11-14T03:27:28.406Z,20.9
2022-11-14T03:33:06.512Z,20.9
2022-11-14T03:38:46.757Z,20.8
2022-11-14T03:44:23.884Z,20.8
2022-11-14T03:50:01.923Z,20.8
2022-11-14T03:55:23.923Z,20.7
2022-11-14T04:00:31.016Z,20.6
2022-11-14T04:05:54.169Z,20.6
2022-11-14T04:11:33.313Z,20.6
2022-11-14T04:17:14.772Z,20.6
2022-11-14T04:22:42.175Z,20.6
2022-11-14T04:28:04.782Z,20.6
2022-11-14T04:33:42.366Z,20.5
2022-11-14T04:39:06.813Z,20.5
2022-11-14T04:44:44.729Z,20.5
2022-11-14T04:50:22.633Z,20.4
2022-11-14T04:55:44.609Z,20.3
2022-11-14T05:01:12.838Z,20.3
2022-11-14T05:06:34.912Z,20.2
2022-11-14T05:12:18.458Z,20.2
2022-11-14T05:17:38.216Z,20.2
2022-11-14T05:23:15.206Z,20.2
2022-11-14T05:28:41.389Z,20.1
2022-11-14T05:33:36.554Z,20
2022-11-14T05:38:58.169Z,20
2022-11-14T05:44:04.847Z,20
2022-11-14T05:49:42.265Z,19.9
2022-11-14T05:55:24.524Z,19.9
2022-11-14T06:01:10.448Z,19.9
2022-11-14T06:06:32.654Z,19.9
2022-11-14T06:12:10.955Z,19.9
2022-11-14T06:17:49.199Z,19.8
2022-11-14T06:23:27.100Z,19.8
2022-11-14T06:29:04.752Z,19.8
2022-11-14T06:34:46.328Z,19.8
2022-11-14T06:40:24.176Z,19.7
2022-11-14T06:46:07.618Z,19.7
2022-11-14T06:51:19.846Z,19.7
2022-11-14T06:57:03.923Z,19.6
2022-11-14T07:02:26.632Z,19.6
2022-11-14T07:07:49.294Z,19.6
2022-11-14T07:13:10.616Z,19.6
2022-11-14T07:18:36.932Z,19.6
2022-11-14T07:23:58.876Z,19.6
2022-11-14T07:29:26.539Z,19.6
2022-11-14T07:34:47.900Z,19.6
2022-11-14T07:40:10.816Z,19.5
2022-11-14T07:45:32.985Z,19.6
2022-11-14T07:50:55.129Z,19.5
2022-11-14T07:56:17.385Z,19.4
2022-11-14T08:01:43.661Z,19.4
2022-11-14T08:07:22.194Z,19.4
2022-11-14T08:13:11.036Z,19.4
2022-11-14T08:18:47.938Z,19.4
2022-11-14T08:24:10.438Z,19.4
2022-11-14T08:29:54.272Z,19.4
2022-11-14T08:35:21.113Z,19.3
2022-11-14T08:41:00.061Z,19.3
2022-11-14T08:46:38.101Z,19.3
2022-11-14T08:52:16.949Z,19.3
2022-11-14T08:57:55.108Z,19.3
2022-11-14T09:03:34.856Z,19.3
2022-11-14T09:09:18.519Z,19.3
2022-11-14T09:14:58.405Z,19.3
2022-11-14T09:20:48.948Z,19.3
2022-11-14T09:26:32.625Z,19.2
2022-11-14T09:32:14.085Z,19.2
2022-11-14T09:37:55.721Z,19.2
2022-11-14T09:43:41.124Z,19.1
2022-11-14T09:49:21.671Z,19.1
2022-11-14T09:55:04.729Z,19.1
2022-11-14T10:00:43.842Z,19.1
2022-11-14T10:06:11.630Z,19.1
2022-11-14T10:11:50.790Z,19.1
2022-11-14T10:17:14.180Z,19.1
2022-11-14T10:22:52.009Z,19.1
2022-11-14T10:28:38.036Z,19.1
2022-11-14T10:34:15.201Z,19.1
2022-11-14T10:40:00.786Z,19
2022-11-14T10:46:11.607Z,19
2022-11-14T10:51:34.659Z,19
2022-11-14T10:57:42.187Z,18.9
2022-11-14T11:03:30.949Z,18.9
2022-11-14T11:10:39.587Z,19
2022-11-14T11:16:02.082Z,18.9
2022-11-14T11:21:36.692Z,18.9
2022-11-14T11:27:14.780Z,18.9
2022-11-14T11:32:53.106Z,18.9
2022-11-14T11:38:33.065Z,18.9
2022-11-14T11:45:37.473Z,18.9
2022-11-14T11:51:00.616Z,18.9
2022-11-14T11:56:38.945Z,18.9
2022-11-14T12:02:06.743Z,19
2022-11-14T12:07:51.756Z,18.9
2022-11-14T12:14:05.838Z,18.9
2022-11-14T12:19:49.891Z,18.9
2022-11-14T12:25:35.080Z,18.9
2022-11-14T12:31:19.795Z,18.9
2022-11-14T12:36:58.829Z,18.9
2022-11-14T12:42:39.480Z,18.9
2022-11-14T12:48:20.883Z,18.9
2022-11-14T12:54:01.216Z,18.9
2022-11-14T12:59:41.833Z,18.9
2022-11-14T13:05:10.653Z,18.9
2022-11-14T13:10:22.652Z,18.9
2022-11-14T13:16:05.781Z,18.9
2022-11-14T13:21:45.773Z,18.9
2022-11-14T13:27:08.757Z,18.9
2022-11-14T13:33:25.575Z,18.9
2022-11-14T13:39:09.244Z,18.9
2022-11-14T13:44:52.441Z,18.9
2022-11-14T13:50:30.862Z,18.9
2022-11-14T13:56:37.227Z,18.9
2022-11-14T14:02:18.022Z,18.9
2022-11-14T14:08:02.339Z,18.9
2022-11-14T14:13:40.514Z,18.9
2022-11-14T14:19:23.098Z,18.9
2022-11-14T14:25:04.183Z,18.9
2022-11-14T14:30:46.400Z,18.9
2022-11-14T14:36:30.300Z,18.9
2022-11-14T14:42:09.203Z,18.9
2022-11-14T14:47:52.074Z,18.9
2022-11-14T14:53:35.590Z,18.9
2022-11-14T14:59:13.323Z,18.9
2022-11-14T15:04:42.191Z,18.9
2022-11-14T15:10:20.466Z,18.9
2022-11-14T15:15:58.914Z,18.9
2022-11-14T15:21:44.176Z,18.9
2022-11-14T15:27:22.343Z,18.9
2022-11-14T15:32:45.219Z,18.9
2022-11-14T15:38:59.085Z,18.9
2022-11-14T15:44:37.085Z,18.9
2022-11-14T15:50:15.484Z,18.9
2022-11-14T15:55:54.060Z,18.9
2022-11-14T16:01:58.118Z,18.8
2022-11-14T16:07:36.327Z,18.8
2022-11-14T16:12:46.756Z,18.8
2022-11-14T16:18:11.426Z,18.8
2022-11-14T16:23:34.497Z,18.8
2022-11-14T16:29:01.249Z,18.8
2022-11-14T16:34:23.824Z,18.8
2022-11-14T16:40:01.796Z,18.8
2022-11-14T16:45:31.906Z,18.8
2022-11-14T16:50:38.872Z,18.8
2022-11-14T16:56:30.893Z,19.9
2022-11-14T17:02:11.311Z,23.1
2022-11-14T17:07:39.284Z,25
2022-11-14T17:13:02.195Z,26.1
2022-11-14T17:18:41.736Z,26.9
2022-11-14T17:24:02.967Z,27.4
2022-11-14T17:29:31.695Z,27.9
2022-11-14T17:34:26.628Z,28.3
2022-11-14T17:40:03.497Z,28.4
2022-11-14T17:45:41.573Z,28.6
2022-11-14T17:51:24.114Z,29
2022-11-14T17:56:49.792Z,29.1
2022-11-14T18:02:30.543Z,29.4
2022-11-14T18:07:58.961Z,29.5
2022-11-14T18:13:40.248Z,29.5
2022-11-14T18:19:36.347Z,29.5
2022-11-14T18:25:14.239Z,29.4
2022-11-14T18:31:14.756Z,29.8
2022-11-14T18:36:52.650Z,30.2
2022-11-14T18:42:04.720Z,30.4
2022-11-14T18:47:43.568Z,30.6
2022-11-14T18:53:11.274Z,30.8
2022-11-14T18:58:19.217Z,30.9
2022-11-14T19:03:58.247Z,30.9
2022-11-14T19:09:27.074Z,31
2022-11-14T19:15:05.210Z,30.9
2022-11-14T19:20:47.337Z,30.8
2022-11-14T19:26:27.459Z,30.7
2022-11-14T19:32:05.463Z,30.6
2022-11-14T19:38:03.679Z,30.7
2022-11-14T19:43:28.257Z,30.5
2022-11-14T19:49:06.702Z,30.3
2022-11-14T19:54:32.066Z,30.4
2022-11-14T20:00:13.918Z,30.1
2022-11-14T20:05:52.537Z,30.1
2022-11-14T20:11:34.129Z,29.8
2022-11-14T20:16:56.602Z,29.6
2022-11-14T20:22:20.789Z,29.4
2022-11-14T20:27:49.395Z,29.2
2022-11-14T20:33:11.600Z,29
2022-11-14T20:39:12.583Z,28.9
2022-11-14T20:44:51.258Z,29.7
2022-11-14T20:50:15.424Z,29.7
2022-11-14T20:55:43.548Z,29.9
2022-11-14T21:01:20.488Z,30.3
2022-11-14T21:07:00.282Z,29.9
2022-11-14T21:12:38.861Z,30.1
2022-11-14T21:18:15.094Z,29.9
2022-11-14T21:23:52.825Z,30
2022-11-14T21:29:22.040Z,29.8
2022-11-14T21:34:44.017Z,29.8
2022-11-14T21:40:57.901Z,30
2022-11-14T21:46:40.117Z,30.4
2022-11-14T21:52:18.359Z,30.8
2022-11-14T21:57:27.031Z,30.9
2022-11-14T22:02:49.967Z,30.8
2022-11-14T22:08:31.575Z,30.6
2022-11-14T22:14:11.384Z,30.6
2022-11-14T22:19:55.025Z,30.7
2022-11-14T22:25:17.240Z,30.3
2022-11-14T22:30:23.459Z,30.1
2022-11-14T22:36:01.496Z,30.3
2022-11-14T22:41:45.489Z,29.9
2022-11-14T22:47:23.136Z,29.9
2022-11-14T22:53:00.285Z,29.9
2022-11-14T22:57:51.503Z,29.6
2022-11-14T23:03:35.872Z,29.4
2022-11-14T23:09:14.609Z,29.4
2022-11-14T23:14:52.768Z,29.3
2022-11-14T23:20:33.306Z,29.3
2022-11-14T23:25:54.600Z,29.1
2022-11-14T23:31:32.222Z,28.9
2022-11-14T23:37:09.705Z,28.6
2022-11-14T23:42:47.218Z,28.3
2022-11-14T23:48:24.054Z,28.1
2022-11-14T23:53:46.502Z,27.9
2022-11-14T23:59:23.744Z,27.8
